Time;durP1;ratioP1;P1;durP2;ratioP2;P2;SDS_P1;SDS_P2;PMS_P1;PMS_P2;Temp;Humidity;BMP_temperature;BMP_pressure;BME280_temperature;BME280_humidity;BME280_pressure;Samples;Min_cycle;Max_cycle;Signal;HPM_P1;HPM_P2
2023/11/24 00:02:03;;;;;;;9.30;3.50;;;;;;;;;;5064170;28;20025;-71
2023/11/24 00:04:29;;;;;;;10.40;3.83;;;;;;;;;;5056837;28;20067;-71
2023/11/24 00:06:56;;;;;;;7.18;4.00;;;;;;;;;;5078415;28;20046;-71
2023/11/24 00:09:23;;;;;;;7.18;3.28;;;;;;;;;;5058683;28;20028;-71
2023/11/24 00:11:50;;;;;;;6.32;3.13;;;;;;;;;;5061360;28;20426;-71
2023/11/24 00:14:16;;;;;;;7.35;3.30;;;;;;;;;;5062840;28;20435;-70
2023/11/24 00:16:43;;;;;;;7.38;3.28;;;;;;;;;;5061892;28;20422;-71
2023/11/24 00:19:15;;;;;;;8.77;2.90;;;;;;;;;;5059334;28;20207;-71
2023/11/24 00:21:42;;;;;;;8.88;3.47;;;;;;;;;;5062208;28;20032;-71
2023/11/24 00:24:08;;;;;;;5.18;3.15;;;;;;;;;;5060887;28;20025;-71
2023/11/24 00:26:35;;;;;;;8.23;3.67;;;;;;;;;;5056558;28;20025;-71
2023/11/24 00:29:01;;;;;;;11.73;3.13;;;;;;;;;;5066117;28;20504;-72
2023/11/24 00:31:28;;;;;;;9.18;3.65;;;;;;;;;;5073291;28;20082;-71
2023/11/24 00:33:55;;;;;;;13.25;3.78;;;;;;;;;;5065710;28;20514;-71
2023/11/24 00:36:21;;;;;;;13.65;3.05;;;;;;;;;;5061901;28;20107;-71
2023/11/24 00:38:50;;;;;;;11.52;3.45;;;;;;;;;;5063034;28;20037;-71
2023/11/24 00:41:17;;;;;;;10.40;4.00;;;;;;;;;;5075729;28;20037;-71
2023/11/24 00:43:44;;;;;;;8.95;2.97;;;;;;;;;;5052733;28;20051;-72
2023/11/24 00:46:11;;;;;;;6.10;2.63;;;;;;;;;;5062537;28;20032;-71
2023/11/24 00:48:37;;;;;;;14.63;3.33;;;;;;;;;;5068858;28;20032;-71
2023/11/24 00:51:04;;;;;;;8.63;2.70;;;;;;;;;;5062375;28;20484;-71
2023/11/24 00:53:30;;;;;;;5.88;2.92;;;;;;;;;;5058979;28;20048;-71
2023/11/24 00:55:57;;;;;;;5.05;2.38;;;;;;;;;;5060051;28;20025;-71
2023/11/24 00:58:23;;;;;;;4.57;2.42;;;;;;;;;;5064752;28;20033;-71
2023/11/24 01:00:49;;;;;;;10.25;3.17;;;;;;;;;;5055291;28;20036;-71
2023/11/24 01:03:15;;;;;;;11.07;3.78;;;;;;;;;;5061229;28;20047;-72
2023/11/24 01:05:42;;;;;;;10.20;2.95;;;;;;;;;;5062496;28;20460;-71
2023/11/24 01:08:08;;;;;;;9.13;3.20;;;;;;;;;;5063270;28;20035;-71
2023/11/24 01:10:35;;;;;;;16.02;3.28;;;;;;;;;;5058704;28;20031;-71
2023/11/24 01:13:01;;;;;;;6.28;3.17;;;;;;;;;;5053555;28;20534;-71
2023/11/24 01:15:27;;;;;;;17.67;3.67;;;;;;;;;;5058726;28;20026;-71
2023/11/24 01:17:54;;;;;;;9.18;2.80;;;;;;;;;;5065602;28;20424;-71
2023/11/24 01:20:21;;;;;;;8.30;3.28;;;;;;;;;;5063233;28;20056;-71
2023/11/24 01:22:48;;;;;;;12.82;4.57;;;;;;;;;;5061747;28;20174;-71
2023/11/24 01:25:15;;;;;;;6.88;3.10;;;;;;;;;;5065940;28;20021;-72
2023/11/24 01:27:41;;;;;;;10.50;3.78;;;;;;;;;;5059088;28;20096;-72
2023/11/24 01:30:08;;;;;;;9.10;2.67;;;;;;;;;;5064256;28;20032;-71
2023/11/24 01:32:35;;;;;;;8.82;3.28;;;;;;;;;;5074387;28;20531;-72
2023/11/24 01:35:01;;;;;;;8.63;3.17;;;;;;;;;;5054235;28;20036;-72
2023/11/24 01:37:27;;;;;;;15.75;3.28;;;;;;;;;;5063572;28;20067;-72
2023/11/24 01:39:53;;;;;;;9.38;3.22;;;;;;;;;;5066508;28;20063;-71
2023/11/24 01:42:22;;;;;;;5.47;2.38;;;;;;;;;;5062926;28;20042;-72
2023/11/24 01:44:48;;;;;;;11.43;2.60;;;;;;;;;;5058649;28;20112;-72
2023/11/24 01:47:14;;;;;;;6.40;3.10;;;;;;;;;;5065148;28;20031;-71
2023/11/24 01:49:40;;;;;;;5.25;2.30;;;;;;;;;;5058814;28;20021;-71
2023/11/24 01:52:07;;;;;;;8.88;2.40;;;;;;;;;;5058938;28;20025;-72
2023/11/24 01:54:36;;;;;;;15.38;2.50;;;;;;;;;;5056120;28;20396;-71
2023/11/24 01:57:09;;;;;;;21.35;2.80;;;;;;;;;;5065810;28;20032;-72
2023/11/24 01:59:35;;;;;;;6.38;2.67;;;;;;;;;;5062856;28;20029;-72
2023/11/24 02:02:02;;;;;;;12.45;2.83;;;;;;;;;;5060670;28;20170;-72
2023/11/24 02:04:28;;;;;;;12.85;3.53;;;;;;;;;;5064792;28;20488;-72
2023/11/24 02:06:56;;;;;;;13.63;3.15;;;;;;;;;;5059277;28;20035;-72
2023/11/24 02:09:23;;;;;;;9.55;3.38;;;;;;;;;;5064369;28;20779;-72
2023/11/24 02:11:49;;;;;;;15.57;3.95;;;;;;;;;;5078058;28;20047;-72
2023/11/24 02:14:15;;;;;;;13.88;4.18;;;;;;;;;;5059370;28;20741;-72
2023/11/24 02:16:41;;;;;;;14.13;3.50;;;;;;;;;;5067840;28;20024;-72
2023/11/24 02:19:07;;;;;;;5.93;3.33;;;;;;;;;;5058585;28;20075;-72
2023/11/24 02:21:33;;;;;;;10.77;3.25;;;;;;;;;;5072738;28;20028;-72
2023/11/24 02:24:00;;;;;;;9.20;3.63;;;;;;;;;;5058607;28;20033;-72
2023/11/24 02:26:26;;;;;;;6.95;2.78;;;;;;;;;;5063792;28;20032;-71
2023/11/24 02:28:53;;;;;;;7.20;3.03;;;;;;;;;;5061182;28;20032;-72
2023/11/24 02:31:19;;;;;;;11.90;3.22;;;;;;;;;;5061425;28;20062;-71
2023/11/24 02:33:48;;;;;;;21.83;3.15;;;;;;;;;;5062580;28;20040;-71
2023/11/24 02:36:20;;;;;;;14.52;4.30;;;;;;;;;;5067233;28;20477;-70
2023/11/24 02:38:49;;;;;;;9.82;2.85;;;;;;;;;;5067701;28;20048;-71
2023/11/24 02:41:16;;;;;;;9.70;2.85;;;;;;;;;;5066940;28;20730;-71
2023/11/24 02:43:42;;;;;;;8.35;4.07;;;;;;;;;;5061887;28;20527;-72
2023/11/24 02:46:18;;;;;;;13.60;2.95;;;;;;;;;;5066387;28;20036;-71
2023/11/24 02:48:44;;;;;;;7.47;2.90;;;;;;;;;;5060133;28;20086;-71
2023/11/24 02:51:11;;;;;;;12.23;2.60;;;;;;;;;;5064910;28;20013;-72
2023/11/24 02:53:38;;;;;;;8.65;2.75;;;;;;;;;;5062228;28;20425;-71
2023/11/24 02:56:05;;;;;;;5.88;2.75;;;;;;;;;;5067394;28;20029;-71
2023/11/24 02:58:32;;;;;;;7.45;2.70;;;;;;;;;;5060499;28;20043;-71
2023/11/24 03:00:58;;;;;;;11.48;3.03;;;;;;;;;;5070001;28;20087;-71
2023/11/24 03:03:24;;;;;;;7.30;2.55;;;;;;;;;;5065663;28;20395;-72
2023/11/24 03:05:51;;;;;;;6.90;3.10;;;;;;;;;;5064599;28;20439;-72
2023/11/24 03:08:18;;;;;;;5.97;2.95;;;;;;;;;;5063842;28;20052;-71
2023/11/24 03:10:45;;;;;;;7.68;2.83;;;;;;;;;;5062907;28;20035;-71
2023/11/24 03:13:11;;;;;;;9.18;2.92;;;;;;;;;;5078192;28;20480;-72
2023/11/24 03:15:37;;;;;;;6.90;2.47;;;;;;;;;;5061971;28;20076;-72
2023/11/24 03:18:03;;;;;;;7.82;2.72;;;;;;;;;;5069035;28;20059;-72
2023/11/24 03:20:30;;;;;;;7.43;2.95;;;;;;;;;;5058094;28;20036;-71
2023/11/24 03:22:56;;;;;;;8.93;2.80;;;;;;;;;;5064160;28;20150;-72
2023/11/24 03:25:22;;;;;;;3.88;2.78;;;;;;;;;;5066843;28;20396;-71
2023/11/24 03:27:49;;;;;;;8.95;2.72;;;;;;;;;;5068347;28;20028;-72
2023/11/24 03:30:15;;;;;;;8.02;2.67;;;;;;;;;;5066945;28;20105;-71
2023/11/24 03:32:41;;;;;;;7.28;3.05;;;;;;;;;;5067322;28;20707;-71
2023/11/24 03:35:08;;;;;;;12.50;2.83;;;;;;;;;;5069831;28;20035;-71
2023/11/24 03:37:34;;;;;;;9.48;2.70;;;;;;;;;;5061283;28;20068;-70
2023/11/24 03:40:00;;;;;;;5.80;2.30;;;;;;;;;;5072543;28;20036;-71
2023/11/24 03:42:27;;;;;;;8.52;2.50;;;;;;;;;;5057228;28;20024;-71
2023/11/24 03:44:53;;;;;;;11.57;2.97;;;;;;;;;;5059819;28;20492;-72
2023/11/24 03:47:21;;;;;;;13.27;4.05;;;;;;;;;;5067852;28;20042;-72
2023/11/24 03:49:47;;;;;;;6.05;2.60;;;;;;;;;;5079340;28;20039;-72
2023/11/24 03:52:13;;;;;;;10.68;3.13;;;;;;;;;;5061479;28;20458;-71
2023/11/24 03:54:40;;;;;;;8.45;2.90;;;;;;;;;;5060237;28;20032;-71
2023/11/24 03:57:06;;;;;;;6.32;2.72;;;;;;;;;;5068498;28;20029;-72
2023/11/24 03:59:32;;;;;;;6.93;2.65;;;;;;;;;;5064300;28;20122;-72
2023/11/24 04:01:58;;;;;;;10.93;3.20;;;;;;;;;;5066181;28;20086;-72
2023/11/24 04:04:24;;;;;;;7.03;3.15;;;;;;;;;;5060005;28;20468;-71
2023/11/24 04:06:50;;;;;;;8.45;3.28;;;;;;;;;;5065079;28;20108;-71
2023/11/24 04:09:17;;;;;;;8.07;3.05;;;;;;;;;;5061744;28;20029;-70
2023/11/24 04:11:43;;;;;;;4.25;2.55;;;;;;;;;;5076035;28;20650;-72
2023/11/24 04:14:09;;;;;;;4.70;2.88;;;;;;;;;;5061944;28;20037;-71
2023/11/24 04:16:36;;;;;;;12.25;2.90;;;;;;;;;;5058456;28;20512;-71
2023/11/24 04:19:02;;;;;;;8.38;3.63;;;;;;;;;;5055658;28;20025;-70
2023/11/24 04:21:29;;;;;;;7.20;2.90;;;;;;;;;;5059136;28;20037;-71
2023/11/24 04:23:56;;;;;;;11.93;2.92;;;;;;;;;;5060043;28;20115;-71
2023/11/24 04:26:22;;;;;;;12.05;3.40;;;;;;;;;;5066021;28;20589;-71
2023/11/24 04:28:49;;;;;;;7.63;3.05;;;;;;;;;;5059838;28;20025;-72
2023/11/24 04:31:15;;;;;;;10.25;3.88;;;;;;;;;;5065258;28;20035;-71
2023/11/24 04:33:41;;;;;;;19.25;4.03;;;;;;;;;;5076193;28;20485;-71
2023/11/24 04:36:08;;;;;;;6.35;3.00;;;;;;;;;;5064794;28;20028;-71
2023/11/24 04:38:34;;;;;;;8.40;4.07;;;;;;;;;;5062466;28;20119;-71
2023/11/24 04:41:01;;;;;;;9.73;3.45;;;;;;;;;;5060216;28;20021;-71
2023/11/24 04:43:28;;;;;;;12.73;2.90;;;;;;;;;;5059292;28;20036;-71
2023/11/24 04:45:54;;;;;;;9.88;2.95;;;;;;;;;;5072720;28;20021;-71
2023/11/24 04:48:20;;;;;;;14.75;3.38;;;;;;;;;;5059179;28;20021;-71
2023/11/24 04:50:46;;;;;;;15.00;3.42;;;;;;;;;;5062761;28;20024;-70
2023/11/24 04:53:15;;;;;;;8.23;2.95;;;;;;;;;;5061649;28;20017;-71
2023/11/24 04:55:41;;;;;;;6.53;3.35;;;;;;;;;;5063053;28;20554;-71
2023/11/24 04:58:08;;;;;;;12.73;3.10;;;;;;;;;;5060717;28;20492;-71
2023/11/24 05:00:35;;;;;;;13.32;2.78;;;;;;;;;;5064874;28;20511;-71
2023/11/24 05:03:01;;;;;;;11.70;2.63;;;;;;;;;;5061004;28;20472;-71
2023/11/24 05:05:27;;;;;;;14.40;3.85;;;;;;;;;;5066388;28;20457;-71
2023/11/24 05:07:53;;;;;;;9.23;3.53;;;;;;;;;;5061378;28;20111;-71
2023/11/24 05:10:19;;;;;;;17.15;3.80;;;;;;;;;;5058715;28;20524;-71
2023/11/24 05:12:45;;;;;;;6.75;2.95;;;;;;;;;;5057249;28;20128;-71
2023/11/24 05:15:12;;;;;;;9.90;3.55;;;;;;;;;;5063932;28;20430;-70
2023/11/24 05:17:38;;;;;;;10.05;3.05;;;;;;;;;;5058237;28;20043;-71
2023/11/24 05:20:08;;;;;;;15.13;3.30;;;;;;;;;;5068305;28;20028;-71
2023/11/24 05:22:34;;;;;;;10.50;2.85;;;;;;;;;;5059030;28;20020;-71
2023/11/24 05:25:00;;;;;;;8.75;2.83;;;;;;;;;;5067153;28;20032;-71
2023/11/24 05:27:27;;;;;;;9.75;2.72;;;;;;;;;;5058851;28;20028;-71
2023/11/24 05:29:53;;;;;;;11.05;2.97;;;;;;;;;;5062376;28;20059;-72
2023/11/24 05:32:19;;;;;;;6.53;2.78;;;;;;;;;;5059023;28;20033;-71
2023/11/24 05:34:45;;;;;;;7.28;2.95;;;;;;;;;;5061021;28;20055;-71
2023/11/24 05:37:11;;;;;;;19.05;4.10;;;;;;;;;;5054933;28;20422;-71
2023/11/24 05:39:38;;;;;;;11.23;3.05;;;;;;;;;;5056045;28;20288;-71
2023/11/24 05:42:07;;;;;;;6.10;2.83;;;;;;;;;;5061018;28;20048;-71
2023/11/24 05:44:33;;;;;;;8.85;3.78;;;;;;;;;;5062648;28;20697;-71
2023/11/24 05:47:03;;;;;;;14.00;3.22;;;;;;;;;;5060906;28;20079;-71
2023/11/24 05:49:30;;;;;;;14.07;3.85;;;;;;;;;;5063207;28;20024;-71
2023/11/24 05:51:56;;;;;;;12.48;3.35;;;;;;;;;;5069943;28;20838;-71
2023/11/24 05:54:22;;;;;;;9.93;2.90;;;;;;;;;;5065898;28;20024;-71
2023/11/24 05:56:48;;;;;;;11.57;3.30;;;;;;;;;;5053823;28;20032;-70
2023/11/24 05:59:14;;;;;;;3.67;2.40;;;;;;;;;;5068469;28;20218;-71
2023/11/24 06:01:42;;;;;;;18.55;3.88;;;;;;;;;;5062711;28;20119;-71
2023/11/24 06:04:09;;;;;;;15.02;3.88;;;;;;;;;;5062660;28;20383;-71
2023/11/24 06:06:35;;;;;;;7.53;3.67;;;;;;;;;;5065030;28;20437;-71
2023/11/24 06:09:02;;;;;;;14.00;3.17;;;;;;;;;;5070092;28;20020;-71
2023/11/24 06:11:29;;;;;;;16.65;3.88;;;;;;;;;;5064263;28;20051;-71
2023/11/24 06:13:55;;;;;;;10.85;3.83;;;;;;;;;;5067868;28;20044;-71
2023/11/24 06:16:21;;;;;;;10.20;2.78;;;;;;;;;;5065423;28;20816;-70
2023/11/24 06:18:47;;;;;;;14.75;4.60;;;;;;;;;;5068082;28;20040;-70
2023/11/24 06:21:13;;;;;;;9.35;3.15;;;;;;;;;;5065131;28;20078;-73
2023/11/24 06:23:40;;;;;;;20.85;3.90;;;;;;;;;;5061626;28;20085;-73
2023/11/24 06:26:09;;;;;;;6.57;3.10;;;;;;;;;;5063924;28;20020;-71
2023/11/24 06:28:35;;;;;;;15.95;3.50;;;;;;;;;;5064882;28;20056;-71
2023/11/24 06:31:03;;;;;;;11.98;2.88;;;;;;;;;;5067178;28;20024;-74
2023/11/24 06:33:35;;;;;;;16.42;3.22;;;;;;;;;;5062283;28;20035;-71
2023/11/24 06:36:01;;;;;;;19.42;3.83;;;;;;;;;;5070278;28;20038;-70
2023/11/24 06:38:28;;;;;;;11.18;3.00;;;;;;;;;;5066514;28;20476;-70
2023/11/24 06:40:54;;;;;;;8.73;2.83;;;;;;;;;;5069161;28;20032;-70
2023/11/24 06:43:21;;;;;;;7.80;3.22;;;;;;;;;;5058074;28;20137;-70
2023/11/24 06:45:51;;;;;;;17.00;3.45;;;;;;;;;;5065191;28;20075;-70
2023/11/24 06:48:17;;;;;;;9.30;3.20;;;;;;;;;;5066077;28;20035;-70
2023/11/24 06:50:44;;;;;;;13.25;2.95;;;;;;;;;;5066362;28;20031;-70
2023/11/24 06:53:11;;;;;;;14.05;2.88;;;;;;;;;;5058700;28;20574;-70
2023/11/24 06:55:37;;;;;;;18.95;3.67;;;;;;;;;;5081385;28;20036;-69
2023/11/24 06:58:06;;;;;;;14.52;3.10;;;;;;;;;;5065953;28;21171;-69
2023/11/24 07:00:32;;;;;;;14.07;3.70;;;;;;;;;;5064998;28;20029;-69
2023/11/24 07:02:58;;;;;;;9.65;3.83;;;;;;;;;;5064676;28;20389;-69
2023/11/24 07:05:24;;;;;;;12.15;3.55;;;;;;;;;;5071084;28;20220;-70
2023/11/24 07:07:51;;;;;;;9.65;3.28;;;;;;;;;;5064066;28;20408;-70
2023/11/24 07:10:17;;;;;;;11.15;3.55;;;;;;;;;;5061823;28;20028;-69
2023/11/24 07:12:43;;;;;;;8.15;3.60;;;;;;;;;;5060877;28;20058;-71
2023/11/24 07:15:13;;;;;;;16.35;3.40;;;;;;;;;;5065115;28;20154;-68
2023/11/24 07:17:39;;;;;;;8.52;3.35;;;;;;;;;;5063525;28;20033;-70
2023/11/24 07:20:11;;;;;;;13.00;3.95;;;;;;;;;;5062088;28;20055;-69
2023/11/24 07:22:37;;;;;;;18.70;3.83;;;;;;;;;;5060393;28;20032;-70
2023/11/24 07:25:03;;;;;;;9.48;3.20;;;;;;;;;;5059362;28;20035;-70
2023/11/24 07:27:30;;;;;;;14.05;3.63;;;;;;;;;;5063651;28;20430;-70
2023/11/24 07:29:56;;;;;;;10.07;3.42;;;;;;;;;;5089548;28;20325;-68
2023/11/24 07:32:27;;;;;;;14.82;3.13;;;;;;;;;;5067637;28;20048;-70
2023/11/24 07:34:53;;;;;;;15.07;3.60;;;;;;;;;;5066565;28;20032;-69
2023/11/24 07:37:19;;;;;;;12.68;3.28;;;;;;;;;;5068512;28;20033;-70
2023/11/24 07:39:45;;;;;;;8.10;2.85;;;;;;;;;;5075742;28;20033;-69
2023/11/24 07:42:15;;;;;;;16.02;3.83;;;;;;;;;;5070498;28;20031;-70
2023/11/24 07:44:42;;;;;;;7.03;2.83;;;;;;;;;;5059865;28;20052;-69
2023/11/24 07:47:10;;;;;;;10.57;3.45;;;;;;;;;;5071411;28;20058;-70
2023/11/24 07:49:36;;;;;;;16.30;3.47;;;;;;;;;;5054143;28;20499;-69
2023/11/24 07:52:02;;;;;;;7.25;3.20;;;;;;;;;;5078738;28;20040;-69
2023/11/24 07:54:28;;;;;;;15.10;3.15;;;;;;;;;;5062512;28;20377;-69
2023/11/24 07:56:56;;;;;;;11.52;2.85;;;;;;;;;;5060691;28;20532;-69
2023/11/24 07:59:23;;;;;;;12.32;3.05;;;;;;;;;;5061355;28;20029;-68
2023/11/24 08:01:49;;;;;;;12.45;3.78;;;;;;;;;;5060271;28;20509;-70
2023/11/24 08:04:15;;;;;;;12.07;3.15;;;;;;;;;;5057446;28;20096;-69
2023/11/24 08:06:42;;;;;;;13.43;3.20;;;;;;;;;;5065302;28;20020;-69
2023/11/24 08:09:08;;;;;;;8.70;2.72;;;;;;;;;;5057638;28;20115;-69
2023/11/24 08:11:37;;;;;;;11.45;4.38;;;;;;;;;;5058726;28;20035;-69
2023/11/24 08:14:03;;;;;;;10.10;3.35;;;;;;;;;;5051929;28;20024;-69
2023/11/24 08:16:29;;;;;;;15.35;3.20;;;;;;;;;;5052804;28;20028;-70
2023/11/24 08:18:55;;;;;;;10.95;3.28;;;;;;;;;;5059679;28;20065;-69
2023/11/24 08:21:21;;;;;;;11.57;3.50;;;;;;;;;;5062660;28;20513;-70
2023/11/24 08:23:48;;;;;;;13.80;3.05;;;;;;;;;;5053161;28;20411;-70
2023/11/24 08:26:15;;;;;;;20.65;4.00;;;;;;;;;;5062553;28;20048;-69
2023/11/24 08:28:42;;;;;;;12.63;3.33;;;;;;;;;;5064428;28;20051;-69
2023/11/24 08:31:10;;;;;;;7.78;3.22;;;;;;;;;;5056596;28;20063;-69
2023/11/24 08:33:36;;;;;;;11.02;2.88;;;;;;;;;;5062774;28;20035;-69
2023/11/24 08:36:02;;;;;;;5.57;2.85;;;;;;;;;;5055179;28;20516;-69
2023/11/24 08:38:28;;;;;;;14.05;3.53;;;;;;;;;;5061677;28;20021;-70
2023/11/24 08:40:54;;;;;;;9.82;3.30;;;;;;;;;;5066467;28;20751;-69
2023/11/24 08:43:23;;;;;;;10.05;3.58;;;;;;;;;;5066823;28;20132;-71
2023/11/24 08:45:49;;;;;;;14.75;3.92;;;;;;;;;;5054344;28;20436;-70
2023/11/24 08:48:15;;;;;;;8.63;3.33;;;;;;;;;;5058584;28;20061;-71
2023/11/24 08:50:41;;;;;;;7.35;2.83;;;;;;;;;;5067186;28;20036;-70
2023/11/24 08:53:07;;;;;;;7.90;2.70;;;;;;;;;;5062560;28;20060;-70
2023/11/24 08:55:33;;;;;;;16.77;4.00;;;;;;;;;;5064068;28;20071;-70
2023/11/24 08:58:00;;;;;;;11.90;4.05;;;;;;;;;;5061476;28;20032;-71
2023/11/24 09:00:30;;;;;;;12.57;3.30;;;;;;;;;;5063606;28;20078;-69
2023/11/24 09:02:58;;;;;;;8.73;3.08;;;;;;;;;;5054249;28;20378;-70
2023/11/24 09:05:26;;;;;;;8.80;3.03;;;;;;;;;;5053682;28;20013;-71
2023/11/24 09:07:53;;;;;;;12.18;3.15;;;;;;;;;;5063954;28;20021;-69
2023/11/24 09:10:19;;;;;;;14.13;4.07;;;;;;;;;;5067277;28;20031;-70
2023/11/24 09:12:45;;;;;;;9.80;3.55;;;;;;;;;;5064187;28;20442;-70
2023/11/24 09:15:12;;;;;;;9.23;2.85;;;;;;;;;;5058808;28;20017;-70
2023/11/24 09:17:38;;;;;;;13.88;4.22;;;;;;;;;;5066302;28;20028;-70
2023/11/24 09:20:08;;;;;;;9.45;3.35;;;;;;;;;;5070053;28;20036;-70
2023/11/24 09:22:34;;;;;;;14.00;3.38;;;;;;;;;;5063637;28;20096;-70
2023/11/24 09:25:02;;;;;;;9.20;2.95;;;;;;;;;;5065021;28;20085;-69
2023/11/24 09:27:28;;;;;;;13.73;4.07;;;;;;;;;;5057975;28;20082;-69
2023/11/24 09:29:54;;;;;;;7.07;3.25;;;;;;;;;;5072176;28;20060;-69
2023/11/24 09:32:20;;;;;;;8.77;3.08;;;;;;;;;;5061413;28;20077;-70
2023/11/24 09:34:48;;;;;;;12.82;3.03;;;;;;;;;;5061650;28;20519;-70
2023/11/24 09:37:14;;;;;;;10.73;3.47;;;;;;;;;;5059237;28;20032;-70
2023/11/24 09:39:42;;;;;;;13.50;3.22;;;;;;;;;;5058394;28;20114;-70
2023/11/24 09:42:11;;;;;;;17.80;4.05;;;;;;;;;;5070487;28;20610;-69
2023/11/24 09:44:40;;;;;;;7.07;2.60;;;;;;;;;;5056963;28;20055;-70
2023/11/24 09:47:07;;;;;;;5.40;2.45;;;;;;;;;;5061677;28;20035;-69
2023/11/24 09:49:33;;;;;;;7.25;2.80;;;;;;;;;;5055078;28;20029;-70
2023/11/24 09:51:59;;;;;;;6.15;2.58;;;;;;;;;;5068195;28;20098;-70
2023/11/24 09:54:27;;;;;;;11.27;3.10;;;;;;;;;;5057169;28;20481;-70
2023/11/24 09:56:53;;;;;;;10.30;3.15;;;;;;;;;;5058852;28;20037;-70
2023/11/24 09:59:19;;;;;;;10.35;3.28;;;;;;;;;;5052753;28;20025;-70
2023/11/24 10:01:48;;;;;;;15.95;3.50;;;;;;;;;;5058868;28;20024;-69
2023/11/24 10:04:14;;;;;;;9.25;3.78;;;;;;;;;;5060448;28;20043;-69
2023/11/24 10:06:43;;;;;;;12.70;3.95;;;;;;;;;;5053706;28;20016;-69
2023/11/24 10:09:10;;;;;;;7.63;2.60;;;;;;;;;;5051946;28;20543;-68
2023/11/24 10:11:38;;;;;;;7.68;2.72;;;;;;;;;;5058334;28;20476;-69
2023/11/24 10:14:07;;;;;;;12.75;4.38;;;;;;;;;;5062981;28;20293;-69
2023/11/24 10:16:35;;;;;;;9.35;3.33;;;;;;;;;;5058130;28;20036;-69
2023/11/24 10:19:07;;;;;;;5.13;3.22;;;;;;;;;;5061907;28;20039;-70
2023/11/24 10:21:33;;;;;;;11.77;2.88;;;;;;;;;;5053791;28;20440;-71
2023/11/24 10:24:02;;;;;;;10.85;3.45;;;;;;;;;;5060657;28;20035;-69
2023/11/24 10:26:28;;;;;;;13.10;3.20;;;;;;;;;;5055024;28;20150;-69
2023/11/24 10:28:57;;;;;;;10.93;3.25;;;;;;;;;;5063515;28;20020;-69
2023/11/24 10:31:23;;;;;;;5.10;2.45;;;;;;;;;;5064665;28;20016;-69
2023/11/24 10:33:49;;;;;;;9.15;2.63;;;;;;;;;;5057227;28;20036;-69
2023/11/24 10:36:17;;;;;;;11.88;3.35;;;;;;;;;;5062319;28;20029;-69
2023/11/24 10:38:45;;;;;;;8.50;3.05;;;;;;;;;;5064327;28;20029;-69
2023/11/24 10:41:47;;;;;;;9.63;3.05;;;;;;;;;;5057079;28;20036;-69
2023/11/24 10:44:09;;;;;;;15.25;3.90;;;;;;;;;;5063055;28;20053;-69
2023/11/24 10:46:36;;;;;;;11.55;2.60;;;;;;;;;;5056766;28;20079;-70
2023/11/24 10:49:12;;;;;;;10.63;2.58;;;;;;;;;;5051223;28;20036;-69
2023/11/24 10:52:00;;;;;;;12.38;3.22;;;;;;;;;;5056411;28;20025;-70
2023/11/24 10:54:39;;;;;;;6.05;2.78;;;;;;;;;;5062384;28;20029;-69
2023/11/24 10:57:06;;;;;;;10.23;2.78;;;;;;;;;;5071506;28;20033;-70
2023/11/24 10:59:35;;;;;;;12.07;3.10;;;;;;;;;;5048255;28;20987;-70
2023/11/24 11:02:06;;;;;;;9.38;3.42;;;;;;;;;;5061554;28;20025;-70
2023/11/24 11:04:36;;;;;;;8.00;2.60;;;;;;;;;;5060186;28;20035;-70
2023/11/24 11:07:04;;;;;;;7.00;2.55;;;;;;;;;;5067290;28;20032;-70
2023/11/24 11:09:42;;;;;;;14.45;3.17;;;;;;;;;;5059940;28;20073;-71
2023/11/24 11:12:13;;;;;;;5.50;2.60;;;;;;;;;;5065822;28;20407;-70
2023/11/24 11:14:40;;;;;;;7.25;2.67;;;;;;;;;;5054900;28;20033;-70
2023/11/24 11:17:15;;;;;;;8.40;2.47;;;;;;;;;;5060601;28;20032;-69
2023/11/24 11:19:43;;;;;;;5.22;2.70;;;;;;;;;;5062134;28;20067;-69
2023/11/24 11:22:12;;;;;;;7.50;2.90;;;;;;;;;;5061531;28;20028;-69
2023/11/24 11:24:38;;;;;;;35.72;7.72;;;;;;;;;;5075110;28;20100;-70
2023/11/24 11:27:22;;;;;;;10.77;3.35;;;;;;;;;;5063749;28;20507;-69
2023/11/24 11:29:48;;;;;;;11.27;2.95;;;;;;;;;;5067996;28;20024;-71
2023/11/24 11:32:14;;;;;;;5.88;3.30;;;;;;;;;;5060691;28;20028;-70
2023/11/24 11:34:40;;;;;;;6.93;3.17;;;;;;;;;;5058013;28;20040;-69
2023/11/24 11:37:11;;;;;;;9.70;2.60;;;;;;;;;;5060908;28;20455;-70
2023/11/24 11:39:44;;;;;;;6.32;2.95;;;;;;;;;;5062012;28;20358;-70
2023/11/24 11:42:10;;;;;;;8.20;2.90;;;;;;;;;;5066192;28;20036;-69
2023/11/24 11:44:43;;;;;;;10.27;3.15;;;;;;;;;;5072741;28;20064;-70
2023/11/24 11:47:26;;;;;;;8.65;2.97;;;;;;;;;;5063435;28;20047;-69
2023/11/24 11:49:57;;;;;;;7.85;2.90;;;;;;;;;;5060717;28;20071;-70
2023/11/24 11:52:30;;;;;;;7.20;2.33;;;;;;;;;;5066506;28;20480;-69
2023/11/24 11:55:00;;;;;;;9.38;3.25;;;;;;;;;;5060667;28;20029;-69
2023/11/24 11:57:27;;;;;;;12.18;3.03;;;;;;;;;;5083961;28;20028;-69
2023/11/24 11:59:54;;;;;;;11.40;3.63;;;;;;;;;;5076533;28;20119;-69
2023/11/24 12:02:21;;;;;;;10.73;3.95;;;;;;;;;;5058794;28;20047;-69
2023/11/24 12:04:47;;;;;;;8.57;2.80;;;;;;;;;;5058171;28;20044;-69
2023/11/24 12:07:15;;;;;;;12.43;3.70;;;;;;;;;;5061925;28;20021;-69
2023/11/24 12:09:41;;;;;;;6.85;3.00;;;;;;;;;;5061755;28;20021;-70
2023/11/24 12:12:09;;;;;;;12.95;3.33;;;;;;;;;;5072738;28;20051;-69
2023/11/24 12:14:40;;;;;;;13.32;2.95;;;;;;;;;;5056066;28;20658;-69
2023/11/24 12:17:06;;;;;;;12.00;3.50;;;;;;;;;;5066163;28;20385;-69
2023/11/24 12:19:33;;;;;;;10.57;3.40;;;;;;;;;;5058724;28;20655;-69
2023/11/24 12:22:03;;;;;;;20.83;3.33;;;;;;;;;;5078943;28;20093;-70
2023/11/24 12:24:31;;;;;;;7.95;2.90;;;;;;;;;;5062205;28;20488;-69
2023/11/24 12:26:57;;;;;;;5.32;2.88;;;;;;;;;;5066253;28;20055;-69
2023/11/24 12:29:27;;;;;;;7.97;2.58;;;;;;;;;;5072691;28;20667;-69
2023/11/24 12:31:53;;;;;;;8.57;3.72;;;;;;;;;;5059677;28;20033;-69
2023/11/24 12:34:24;;;;;;;9.55;2.88;;;;;;;;;;5055569;28;21992;-69
2023/11/24 12:36:53;;;;;;;11.63;3.38;;;;;;;;;;5057411;28;20127;-69
2023/11/24 12:39:20;;;;;;;11.73;3.40;;;;;;;;;;5066611;28;20028;-69
2023/11/24 12:41:46;;;;;;;7.72;2.90;;;;;;;;;;5067752;28;20028;-70
2023/11/24 12:44:13;;;;;;;9.75;2.90;;;;;;;;;;5063542;28;20102;-70
2023/11/24 12:46:40;;;;;;;7.75;3.33;;;;;;;;;;5065199;28;20056;-70
2023/11/24 12:49:09;;;;;;;5.45;2.55;;;;;;;;;;5072398;28;20126;-69
2023/11/24 12:51:35;;;;;;;7.43;2.65;;;;;;;;;;5059061;28;20044;-69
2023/11/24 12:54:02;;;;;;;7.80;2.90;;;;;;;;;;5062917;28;20028;-69
2023/11/24 12:56:29;;;;;;;3.22;2.22;;;;;;;;;;5066880;28;20506;-70
2023/11/24 12:58:57;;;;;;;6.55;2.55;;;;;;;;;;5057514;28;20307;-68
2023/11/24 13:01:23;;;;;;;3.03;2.13;;;;;;;;;;5058444;28;20041;-69
2023/11/24 13:03:52;;;;;;;9.13;2.95;;;;;;;;;;5065151;28;20040;-69
2023/11/24 13:06:19;;;;;;;9.15;2.88;;;;;;;;;;5061201;28;20369;-69
2023/11/24 13:08:46;;;;;;;8.93;2.78;;;;;;;;;;5038854;28;20065;-69
2023/11/24 13:11:12;;;;;;;12.00;2.90;;;;;;;;;;5053404;28;20462;-69
2023/11/24 13:13:38;;;;;;;6.13;2.17;;;;;;;;;;5063984;28;20029;-70
2023/11/24 13:16:08;;;;;;;4.75;2.40;;;;;;;;;;5078946;28;20032;-69
2023/11/24 13:18:37;;;;;;;4.30;2.13;;;;;;;;;;5067382;28;20388;-69
2023/11/24 13:21:08;;;;;;;6.25;2.20;;;;;;;;;;5057719;28;20044;-71
2023/11/24 13:23:34;;;;;;;4.32;2.20;;;;;;;;;;5061934;28;20032;-69
2023/11/24 13:26:00;;;;;;;8.05;2.45;;;;;;;;;;5058273;28;20039;-69
2023/11/24 13:28:29;;;;;;;8.82;2.70;;;;;;;;;;5061403;28;20029;-69
2023/11/24 13:30:55;;;;;;;6.75;2.40;;;;;;;;;;5065817;28;20035;-68
2023/11/24 13:33:22;;;;;;;3.83;2.30;;;;;;;;;;5055793;28;20017;-69
2023/11/24 13:35:48;;;;;;;6.18;2.83;;;;;;;;;;5065602;28;20084;-68
2023/11/24 13:38:15;;;;;;;6.28;2.60;;;;;;;;;;5062134;28;20051;-69
2023/11/24 13:40:43;;;;;;;8.55;2.53;;;;;;;;;;5067471;28;20073;-69
2023/11/24 13:43:10;;;;;;;2.95;2.25;;;;;;;;;;5070467;28;20037;-69
2023/11/24 13:45:36;;;;;;;7.72;2.08;;;;;;;;;;5058483;28;20552;-69
2023/11/24 13:48:02;;;;;;;6.30;3.15;;;;;;;;;;5056888;28;20023;-68
2023/11/24 13:50:29;;;;;;;5.45;2.75;;;;;;;;;;5060378;28;20563;-69
2023/11/24 13:52:56;;;;;;;5.70;2.47;;;;;;;;;;5060444;28;20090;-69
2023/11/24 13:55:22;;;;;;;3.78;1.92;;;;;;;;;;5053057;28;20036;-69
2023/11/24 13:57:53;;;;;;;4.10;2.10;;;;;;;;;;5061023;28;20036;-68
2023/11/24 14:00:19;;;;;;;4.38;2.35;;;;;;;;;;5055005;28;20506;-68
2023/11/24 14:02:46;;;;;;;5.35;2.60;;;;;;;;;;5059678;28;20109;-68
2023/11/24 14:05:13;;;;;;;5.60;2.75;;;;;;;;;;5051971;28;20032;-69
2023/11/24 14:07:39;;;;;;;3.47;2.13;;;;;;;;;;5054933;28;20021;-69
2023/11/24 14:10:06;;;;;;;6.35;2.25;;;;;;;;;;5057781;28;20025;-69
2023/11/24 14:12:33;;;;;;;3.75;2.50;;;;;;;;;;5056307;28;20033;-69
2023/11/24 14:15:00;;;;;;;7.22;2.97;;;;;;;;;;5058074;28;20035;-69
2023/11/24 14:17:27;;;;;;;8.20;2.58;;;;;;;;;;5062190;28;20028;-68
2023/11/24 14:19:54;;;;;;;4.95;1.98;;;;;;;;;;5052851;28;20086;-68
2023/11/24 14:22:20;;;;;;;3.55;1.85;;;;;;;;;;5058339;28;20032;-68
2023/11/24 14:24:47;;;;;;;5.70;2.28;;;;;;;;;;5060716;28;20563;-68
2023/11/24 14:27:16;;;;;;;5.97;2.83;;;;;;;;;;5065231;28;20016;-68
2023/11/24 14:29:42;;;;;;;6.97;2.60;;;;;;;;;;5066482;28;20021;-69
2023/11/24 14:32:09;;;;;;;6.30;2.55;;;;;;;;;;5059680;28;20029;-68
2023/11/24 14:34:35;;;;;;;6.82;1.83;;;;;;;;;;5065554;28;20099;-69
2023/11/24 14:37:02;;;;;;;5.03;2.15;;;;;;;;;;5063089;28;20028;-67
2023/11/24 14:39:32;;;;;;;2.85;2.05;;;;;;;;;;5080528;28;20062;-69